Time;durP1;ratioP1;P1;durP2;ratioP2;P2;SDS_P1;SDS_P2;PMS_P1;PMS_P2;Temp;Humidity;BMP_temperature;BMP_pressure;BME280_temperature;BME280_humidity;BME280_pressure;Samples;Min_cycle;Max_cycle;Signal;HPM_P1;HPM_P2
2021/10/10 00:00:19;;;;;;;;;46.75;39.75;;;;;;;;5077492;27;45356;-74
2021/10/10 00:02:45;;;;;;;;;48.00;39.50;;;;;;;;5074035;27;45988;-74
2021/10/10 00:05:10;;;;;;;;;50.75;42.50;;;;;;;;5080022;27;45339;-75
2021/10/10 00:07:35;;;;;;;;;19.50;14.75;;;;;;;;5078029;27;45366;-74
2021/10/10 00:10:00;;;;;;;;;52.25;39.50;;;;;;;;5077201;27;45474;-74
2021/10/10 00:12:25;;;;;;;;;46.25;38.25;;;;;;;;5077467;27;49286;-74
2021/10/10 00:14:51;;;;;;;;;44.00;36.50;;;;;;;;5073041;28;45438;-74
2021/10/10 00:17:16;;;;;;;;;52.00;41.75;;;;;;;;5061282;27;45383;-72
2021/10/10 00:19:41;;;;;;;;;49.50;41.50;;;;;;;;5077826;27;45694;-75
2021/10/10 00:22:06;;;;;;;;;49.75;41.50;;;;;;;;5077493;27;45330;-74
2021/10/10 00:24:32;;;;;;;;;51.75;39.50;;;;;;;;5057109;27;45515;-74
2021/10/10 00:26:57;;;;;;;;;51.25;40.00;;;;;;;;5054181;27;45484;-74
2021/10/10 00:29:23;;;;;;;;;51.75;43.25;;;;;;;;5078862;27;45408;-74
2021/10/10 00:31:48;;;;;;;;;48.75;41.50;;;;;;;;5077607;27;47109;-73
2021/10/10 00:34:13;;;;;;;;;49.50;41.75;;;;;;;;5076319;27;45322;-74
2021/10/10 00:36:38;;;;;;;;;52.25;41.50;;;;;;;;5077244;27;45473;-75
2021/10/10 00:39:03;;;;;;;;;46.25;39.75;;;;;;;;5074564;27;45556;-74
2021/10/10 00:41:29;;;;;;;;;45.25;38.25;;;;;;;;5058449;28;46968;-74
2021/10/10 00:43:54;;;;;;;;;43.75;36.75;;;;;;;;5077985;27;45416;-74
2021/10/10 00:46:19;;;;;;;;;44.25;36.50;;;;;;;;5077552;27;45564;-74
2021/10/10 00:48:45;;;;;;;;;53.25;44.00;;;;;;;;5077150;27;45512;-73
2021/10/10 00:51:10;;;;;;;;;49.25;42.75;;;;;;;;5075349;27;46171;-75
2021/10/10 00:53:37;;;;;;;;;50.00;40.00;;;;;;;;5074809;27;45448;-74
2021/10/10 00:56:03;;;;;;;;;43.50;34.50;;;;;;;;5077442;27;45307;-73
2021/10/10 00:58:28;;;;;;;;;55.00;41.50;;;;;;;;5077356;27;45464;-75
2021/10/10 01:00:55;;;;;;;;;49.75;41.00;;;;;;;;5077179;27;46213;-74
2021/10/10 01:03:21;;;;;;;;;45.75;37.00;;;;;;;;5075407;27;45437;-72
2021/10/10 01:05:46;;;;;;;;;48.00;40.00;;;;;;;;5072653;27;45422;-73
2021/10/10 01:08:15;;;;;;;;;48.75;38.00;;;;;;;;5078516;27;45289;-73
2021/10/10 01:10:41;;;;;;;;;53.00;42.50;;;;;;;;5059311;28;47173;-75
2021/10/10 01:13:07;;;;;;;;;43.50;39.00;;;;;;;;5077671;27;45483;-73
2021/10/10 01:15:32;;;;;;;;;46.50;37.25;;;;;;;;5077250;27;45237;-73
2021/10/10 01:17:57;;;;;;;;;49.50;38.00;;;;;;;;5073448;27;45379;-72
2021/10/10 01:20:25;;;;;;;;;49.75;40.25;;;;;;;;5078203;27;46278;-73
2021/10/10 01:22:50;;;;;;;;;48.25;41.00;;;;;;;;5075935;27;45470;-73
2021/10/10 01:25:16;;;;;;;;;50.25;41.00;;;;;;;;5077125;27;45532;-74
2021/10/10 01:27:41;;;;;;;;;49.25;38.75;;;;;;;;5077110;27;45313;-73
2021/10/10 01:30:06;;;;;;;;;52.00;40.00;;;;;;;;5074564;27;47440;-72
2021/10/10 01:32:31;;;;;;;;;52.50;40.75;;;;;;;;5075802;27;45596;-73
2021/10/10 01:34:56;;;;;;;;;49.25;39.75;;;;;;;;5078085;27;45290;-73
2021/10/10 01:37:22;;;;;;;;;50.00;41.75;;;;;;;;5076463;27;45307;-74
2021/10/10 01:39:47;;;;;;;;;60.00;46.75;;;;;;;;5076725;27;45366;-73
2021/10/10 01:42:12;;;;;;;;;50.25;42.25;;;;;;;;5073551;27;47747;-74
2021/10/10 01:44:37;;;;;;;;;48.75;41.50;;;;;;;;5074829;27;45559;-74
2021/10/10 01:47:02;;;;;;;;;53.75;44.00;;;;;;;;5080520;27;45294;-74
2021/10/10 01:49:28;;;;;;;;;51.75;41.25;;;;;;;;5080250;27;46295;-72
2021/10/10 01:51:53;;;;;;;;;51.75;41.50;;;;;;;;5080175;27;45312;-73
2021/10/10 01:54:19;;;;;;;;;57.50;45.50;;;;;;;;5079670;27;45367;-75
2021/10/10 01:56:44;;;;;;;;;51.00;41.75;;;;;;;;5076600;27;45327;-74
2021/10/10 01:59:09;;;;;;;;;52.50;39.75;;;;;;;;5082097;27;46311;-74
2021/10/10 02:01:34;;;;;;;;;51.00;42.25;;;;;;;;5079635;27;45545;-74
2021/10/10 02:04:00;;;;;;;;;51.00;39.25;;;;;;;;5080136;27;45451;-74
2021/10/10 02:06:25;;;;;;;;;54.00;41.50;;;;;;;;5079754;27;45356;-74
2021/10/10 02:08:50;;;;;;;;;55.75;43.75;;;;;;;;5075804;27;45381;-74
2021/10/10 02:11:16;;;;;;;;;54.50;43.50;;;;;;;;5081984;27;45406;-74
2021/10/10 02:13:41;;;;;;;;;49.25;39.50;;;;;;;;5079966;27;45560;-74
2021/10/10 02:16:07;;;;;;;;;50.00;38.50;;;;;;;;5079976;27;45520;-74
2021/10/10 02:18:32;;;;;;;;;52.50;42.50;;;;;;;;5079403;27;45401;-74
2021/10/10 02:20:57;;;;;;;;;48.50;40.25;;;;;;;;5074321;27;45443;-74
2021/10/10 02:23:22;;;;;;;;;51.50;42.25;;;;;;;;5083704;27;45489;-75
2021/10/10 02:25:47;;;;;;;;;54.50;43.00;;;;;;;;5078699;27;45454;-74
2021/10/10 02:28:12;;;;;;;;;52.75;41.75;;;;;;;;5079511;27;46226;-74
2021/10/10 02:30:38;;;;;;;;;50.50;40.50;;;;;;;;5079584;27;45255;-74
2021/10/10 02:33:03;;;;;;;;;51.75;41.75;;;;;;;;5076564;27;45744;-74
2021/10/10 02:35:28;;;;;;;;;54.50;42.75;;;;;;;;5078895;27;45374;-74
2021/10/10 02:37:53;;;;;;;;;53.75;43.25;;;;;;;;5080540;27;45411;-74
2021/10/10 02:40:19;;;;;;;;;50.25;39.50;;;;;;;;5079510;27;45352;-74
2021/10/10 02:42:44;;;;;;;;;52.75;40.50;;;;;;;;5079373;27;45413;-74
2021/10/10 02:45:09;;;;;;;;;53.50;42.75;;;;;;;;5077528;27;45452;-73
2021/10/10 02:47:35;;;;;;;;;51.25;40.25;;;;;;;;5077239;27;47039;-73
2021/10/10 02:50:00;;;;;;;;;42.50;36.00;;;;;;;;5081098;27;45389;-74
2021/10/10 02:52:26;;;;;;;;;45.50;37.75;;;;;;;;5079672;27;45663;-74
2021/10/10 02:54:51;;;;;;;;;51.25;39.75;;;;;;;;5079442;27;45354;-74
2021/10/10 02:57:16;;;;;;;;;48.75;39.25;;;;;;;;5076859;27;46199;-74
2021/10/10 02:59:41;;;;;;;;;51.00;42.00;;;;;;;;5075369;27;45517;-74
2021/10/10 03:02:07;;;;;;;;;53.25;40.75;;;;;;;;5079689;27;45481;-74
2021/10/10 03:04:32;;;;;;;;;46.25;39.50;;;;;;;;5077230;27;45367;-74
2021/10/10 03:06:57;;;;;;;;;47.50;40.00;;;;;;;;5078787;27;46141;-74
2021/10/10 03:09:23;;;;;;;;;52.75;42.50;;;;;;;;5078681;27;45206;-73
2021/10/10 03:11:48;;;;;;;;;45.25;38.25;;;;;;;;5074422;27;45213;-74
2021/10/10 03:14:13;;;;;;;;;52.25;40.75;;;;;;;;5080705;27;45518;-74
2021/10/10 03:16:38;;;;;;;;;53.50;43.75;;;;;;;;5078454;27;45993;-74
2021/10/10 03:19:04;;;;;;;;;57.50;44.75;;;;;;;;5078249;27;45593;-73
2021/10/10 03:21:29;;;;;;;;;61.00;47.25;;;;;;;;5060619;27;45470;-73
2021/10/10 03:23:54;;;;;;;;;50.50;38.75;;;;;;;;5074752;27;45558;-73
2021/10/10 03:26:19;;;;;;;;;49.50;42.50;;;;;;;;5079949;27;46361;-73
2021/10/10 03:28:44;;;;;;;;;45.75;40.75;;;;;;;;5078506;27;45398;-74
2021/10/10 03:31:10;;;;;;;;;47.75;40.75;;;;;;;;5078642;27;47539;-73
2021/10/10 03:33:35;;;;;;;;;54.25;44.75;;;;;;;;5078544;27;45487;-72
2021/10/10 03:36:00;;;;;;;;;58.00;46.25;;;;;;;;5075461;27;46129;-73
2021/10/10 03:38:25;;;;;;;;;48.00;40.50;;;;;;;;5078863;27;45374;-73
2021/10/10 03:40:50;;;;;;;;;54.00;42.50;;;;;;;;5078183;27;45397;-73
2021/10/10 03:43:16;;;;;;;;;59.75;46.75;;;;;;;;5077160;27;45438;-72
2021/10/10 03:45:41;;;;;;;;;54.50;44.50;;;;;;;;5078281;27;45339;-73
2021/10/10 03:48:06;;;;;;;;;54.00;42.25;;;;;;;;5077519;27;45431;-73
2021/10/10 03:50:31;;;;;;;;;51.75;43.00;;;;;;;;5077364;27;45467;-73
2021/10/10 03:52:57;;;;;;;;;55.75;44.25;;;;;;;;5080167;27;45382;-74
2021/10/10 03:55:30;;;;;;;;;48.25;39.25;;;;;;;;5077019;27;45358;-74
2021/10/10 03:57:56;;;;;;;;;57.50;46.00;;;;;;;;5078384;27;45501;-74
2021/10/10 04:00:21;;;;;;;;;59.50;45.25;;;;;;;;5078267;27;45463;-75
2021/10/10 04:02:47;;;;;;;;;52.00;41.50;;;;;;;;5073693;27;45447;-74
2021/10/10 04:05:54;;;;;;;;;54.25;44.75;;;;;;;;5080213;27;46302;-74
2021/10/10 04:08:01;;;;;;;;;63.50;51.50;;;;;;;;5066995;27;45256;-74
2021/10/10 04:10:26;;;;;;;;;70.75;56.25;;;;;;;;5078321;27;45248;-74
2021/10/10 04:12:52;;;;;;;;;51.50;42.50;;;;;;;;5078208;27;45410;-73
2021/10/10 04:15:18;;;;;;;;;59.25;47.75;;;;;;;;5076855;27;45920;-74
2021/10/10 04:17:43;;;;;;;;;56.75;47.25;;;;;;;;5074027;27;45356;-74
2021/10/10 04:20:10;;;;;;;;;48.25;41.25;;;;;;;;5079412;27;45450;-74
2021/10/10 04:22:35;;;;;;;;;47.50;38.00;;;;;;;;5076788;27;47224;-73
2021/10/10 04:25:00;;;;;;;;;53.50;42.25;;;;;;;;5078124;27;46399;-74
2021/10/10 04:27:26;;;;;;;;;51.75;42.25;;;;;;;;5077946;27;45368;-74
2021/10/10 04:29:51;;;;;;;;;53.75;41.75;;;;;;;;5073314;27;45609;-74
2021/10/10 04:32:16;;;;;;;;;54.50;43.25;;;;;;;;5080437;27;45332;-74
2021/10/10 04:34:41;;;;;;;;;53.25;42.00;;;;;;;;5077654;27;46268;-74
2021/10/10 04:37:07;;;;;;;;;56.25;42.25;;;;;;;;5077718;27;45514;-74
2021/10/10 04:39:32;;;;;;;;;51.50;39.00;;;;;;;;5077834;27;45513;-74
2021/10/10 04:41:57;;;;;;;;;52.50;42.75;;;;;;;;5074476;27;45490;-73
2021/10/10 04:44:22;;;;;;;;;56.75;46.50;;;;;;;;5078149;27;45361;-74
2021/10/10 04:46:48;;;;;;;;;49.00;41.75;;;;;;;;5078171;27;45464;-74
2021/10/10 04:49:13;;;;;;;;;50.25;41.75;;;;;;;;5077651;27;45661;-73
2021/10/10 04:51:38;;;;;;;;;61.00;48.50;;;;;;;;5077730;27;45330;-74
2021/10/10 04:54:03;;;;;;;;;57.50;43.75;;;;;;;;5074076;27;46269;-74
2021/10/10 04:56:28;;;;;;;;;54.00;44.75;;;;;;;;5076707;27;45415;-74
2021/10/10 04:58:53;;;;;;;;;53.50;44.00;;;;;;;;5077011;27;45320;-74
2021/10/10 05:01:19;;;;;;;;;56.75;45.00;;;;;;;;5075532;27;45475;-74
2021/10/10 05:03:44;;;;;;;;;54.25;45.50;;;;;;;;5076941;27;46235;-74
2021/10/10 05:06:09;;;;;;;;;56.00;46.25;;;;;;;;5075066;27;45379;-74
2021/10/10 05:08:34;;;;;;;;;48.00;39.00;;;;;;;;5075482;27;45412;-74
2021/10/10 05:11:00;;;;;;;;;64.00;50.50;;;;;;;;5079310;27;45318;-74
2021/10/10 05:13:25;;;;;;;;;58.25;43.50;;;;;;;;5076873;27;45422;-73
2021/10/10 05:15:50;;;;;;;;;68.25;46.25;;;;;;;;5077004;27;45324;-74
2021/10/10 05:18:15;;;;;;;;;52.25;40.00;;;;;;;;5076423;27;45501;-74
2021/10/10 05:20:40;;;;;;;;;54.75;42.75;;;;;;;;5075105;27;49075;-73
2021/10/10 05:23:07;;;;;;;;;55.75;44.00;;;;;;;;5082589;27;46257;-73
2021/10/10 05:25:33;;;;;;;;;58.00;44.25;;;;;;;;5080626;27;45261;-75
2021/10/10 05:27:58;;;;;;;;;51.00;43.25;;;;;;;;5080341;27;45522;-74
2021/10/10 05:30:23;;;;;;;;;50.25;40.25;;;;;;;;5080368;27;47219;-74
2021/10/10 05:32:48;;;;;;;;;51.25;41.75;;;;;;;;5059443;28;46102;-73
2021/10/10 05:35:14;;;;;;;;;54.25;44.50;;;;;;;;5082068;27;45444;-74
2021/10/10 05:37:39;;;;;;;;;53.00;42.50;;;;;;;;5078913;27;45477;-75
2021/10/10 05:40:04;;;;;;;;;56.50;41.25;;;;;;;;5078094;27;45562;-74
2021/10/10 05:42:32;;;;;;;;;49.75;39.75;;;;;;;;5079337;27;45280;-75
2021/10/10 05:44:57;;;;;;;;;55.75;43.00;;;;;;;;5076299;27;45411;-74
2021/10/10 05:47:22;;;;;;;;;53.25;43.00;;;;;;;;5080476;27;45402;-74
2021/10/10 05:49:48;;;;;;;;;53.50;43.25;;;;;;;;5079649;27;45394;-74
2021/10/10 05:52:13;;;;;;;;;54.75;43.75;;;;;;;;5079647;27;46237;-73
2021/10/10 05:54:39;;;;;;;;;55.00;43.50;;;;;;;;5079650;27;45410;-73
2021/10/10 05:57:10;;;;;;;;;55.25;41.00;;;;;;;;5076600;27;45362;-73
2021/10/10 05:59:37;;;;;;;;;46.50;40.00;;;;;;;;5077596;27;45343;-75
2021/10/10 06:02:02;;;;;;;;;56.00;43.00;;;;;;;;5079553;27;47244;-73
2021/10/10 06:04:28;;;;;;;;;51.50;42.00;;;;;;;;5079546;27;45346;-75
2021/10/10 06:06:53;;;;;;;;;59.25;45.00;;;;;;;;5079859;27;45384;-74
2021/10/10 06:09:18;;;;;;;;;58.25;44.00;;;;;;;;5079294;27;45377;-73
2021/10/10 06:11:44;;;;;;;;;55.00;43.75;;;;;;;;5075363;27;46948;-73
2021/10/10 06:14:09;;;;;;;;;61.00;47.50;;;;;;;;5081644;27;45414;-74
2021/10/10 06:16:34;;;;;;;;;54.00;43.50;;;;;;;;5059907;27;45500;-72
2021/10/10 06:19:00;;;;;;;;;52.75;42.00;;;;;;;;5078095;27;45416;-74
2021/10/10 06:21:25;;;;;;;;;55.75;44.25;;;;;;;;5079079;27;45292;-73
2021/10/10 06:23:53;;;;;;;;;56.75;44.75;;;;;;;;5074824;27;45960;-74
2021/10/10 06:26:18;;;;;;;;;50.75;39.75;;;;;;;;5092404;27;45313;-73
2021/10/10 06:28:43;;;;;;;;;55.00;44.75;;;;;;;;5079525;27;45394;-73
2021/10/10 06:31:08;;;;;;;;;51.75;44.50;;;;;;;;5079141;27;46306;-73
2021/10/10 06:33:33;;;;;;;;;54.50;45.25;;;;;;;;5079196;27;45304;-74
2021/10/10 06:35:59;;;;;;;;;49.50;43.25;;;;;;;;5075768;27;45817;-72
2021/10/10 06:38:24;;;;;;;;;56.00;45.00;;;;;;;;5079642;27;45360;-73
2021/10/10 06:40:49;;;;;;;;;67.75;50.00;;;;;;;;5079259;27;45998;-72
2021/10/10 06:43:14;;;;;;;;;61.50;46.00;;;;;;;;5078498;27;45503;-71
2021/10/10 06:45:40;;;;;;;;;56.50;45.25;;;;;;;;5079122;27;45360;-71
2021/10/10 06:48:05;;;;;;;;;51.25;44.25;;;;;;;;5076152;27;45537;-72
2021/10/10 06:50:30;;;;;;;;;56.25;46.25;;;;;;;;5077469;27;46315;-72
2021/10/10 06:52:55;;;;;;;;;61.50;49.00;;;;;;;;5079888;27;45420;-72
2021/10/10 06:55:20;;;;;;;;;55.50;45.50;;;;;;;;5076673;27;45568;-72
2021/10/10 06:57:46;;;;;;;;;63.00;50.00;;;;;;;;5074307;27;45380;-75
2021/10/10 07:03:38;;;;;;;;;57.25;44.00;;;;;;;;5054704;27;45885;-75
2021/10/10 07:09:19;;;;;;;;;53.50;42.75;;;;;;;;5019491;28;45448;-75
2021/10/10 07:11:45;;;;;;;;;57.25;41.25;;;;;;;;5015189;28;46130;-76
2021/10/10 07:14:30;;;;;;;;;56.75;43.75;;;;;;;;5033977;28;45392;-74
2021/10/10 07:19:58;;;;;;;;;54.50;43.50;;;;;;;;5013772;28;45366;-75
2021/10/10 07:22:45;;;;;;;;;53.50;41.50;;;;;;;;5013621;28;45639;-75
2021/10/10 07:25:25;;;;;;;;;57.50;41.75;;;;;;;;5014097;28;45395;-76
2021/10/10 07:27:51;;;;;;;;;48.25;39.75;;;;;;;;5012628;28;45392;-76
2021/10/10 07:30:16;;;;;;;;;53.00;40.75;;;;;;;;5012541;28;45540;-76
2021/10/10 07:32:47;;;;;;;;;59.50;45.00;;;;;;;;5013408;28;45426;-73
2021/10/10 07:35:13;;;;;;;;;54.50;41.75;;;;;;;;5013212;28;45483;-73
2021/10/10 07:37:38;;;;;;;;;52.00;42.75;;;;;;;;5013281;28;45718;-73
2021/10/10 07:40:09;;;;;;;;;54.50;43.75;;;;;;;;5012601;28;45624;-75
2021/10/10 07:42:35;;;;;;;;;53.50;44.25;;;;;;;;5013300;28;45595;-73
2021/10/10 07:45:18;;;;;;;;;58.25;46.25;;;;;;;;5013416;28;45499;-72
2021/10/10 07:47:51;;;;;;;;;50.25;40.75;;;;;;;;5038303;28;45623;-70
2021/10/10 07:50:26;;;;;;;;;55.25;43.00;;;;;;;;5018645;28;45616;-71
2021/10/10 07:52:56;;;;;;;;;50.50;42.00;;;;;;;;5016142;28;45429;-72
2021/10/10 07:55:28;;;;;;;;;52.50;42.25;;;;;;;;5015921;28;45386;-71
2021/10/10 07:57:54;;;;;;;;;54.50;43.00;;;;;;;;5033479;28;45496;-75
2021/10/10 08:00:19;;;;;;;;;54.75;43.25;;;;;;;;5036568;28;45445;-77
2021/10/10 08:02:52;;;;;;;;;43.25;34.75;;;;;;;;5033425;28;45403;-77
2021/10/10 08:05:17;;;;;;;;;55.25;43.25;;;;;;;;5038093;28;45404;-77
2021/10/10 08:07:42;;;;;;;;;53.50;43.00;;;;;;;;5036962;28;45521;-76
2021/10/10 08:10:08;;;;;;;;;53.00;41.00;;;;;;;;5037350;28;45454;-74
2021/10/10 08:12:33;;;;;;;;;50.25;40.25;;;;;;;;5035249;28;47258;-73
2021/10/10 08:14:58;;;;;;;;;49.25;42.50;;;;;;;;5031727;28;47737;-71
2021/10/10 08:17:23;;;;;;;;;51.25;41.50;;;;;;;;5037715;28;45566;-72
2021/10/10 08:19:48;;;;;;;;;51.75;41.50;;;;;;;;5037157;28;45436;-73
2021/10/10 08:22:14;;;;;;;;;50.00;38.75;;;;;;;;5035767;28;45444;-73
2021/10/10 08:24:39;;;;;;;;;48.50;38.25;;;;;;;;5036624;28;45288;-73
2021/10/10 08:27:05;;;;;;;;;49.00;41.50;;;;;;;;5033653;28;45314;-72
2021/10/10 08:29:30;;;;;;;;;55.50;42.00;;;;;;;;5035549;28;45310;-74
2021/10/10 08:31:55;;;;;;;;;55.25;43.00;;;;;;;;5037166;28;46957;-74
2021/10/10 08:34:20;;;;;;;;;55.50;45.50;;;;;;;;5036551;28;45518;-74
2021/10/10 08:36:46;;;;;;;;;50.00;43.00;;;;;;;;5035834;28;45426;-74
2021/10/10 08:39:11;;;;;;;;;58.00;46.50;;;;;;;;5034881;28;45272;-74
2021/10/10 08:41:36;;;;;;;;;53.00;43.75;;;;;;;;5033732;28;45525;-75
2021/10/10 08:44:02;;;;;;;;;54.25;42.50;;;;;;;;5035407;28;45418;-74
2021/10/10 08:46:29;;;;;;;;;49.00;42.00;;;;;;;;5035849;28;45448;-74
2021/10/10 08:48:54;;;;;;;;;49.00;39.50;;;;;;;;5053641;27;45442;-74
2021/10/10 08:51:19;;;;;;;;;57.00;45.00;;;;;;;;5074361;27;45487;-74
2021/10/10 08:53:45;;;;;;;;;57.50;45.00;;;;;;;;5072721;27;45485;-74
2021/10/10 08:56:10;;;;;;;;;52.25;40.25;;;;;;;;5079585;27;45331;-73
2021/10/10 08:58:40;;;;;;;;;48.00;40.00;;;;;;;;5080071;27;45438;-73
2021/10/10 09:01:15;;;;;;;;;48.25;41.00;;;;;;;;5079948;27;46281;-72
2021/10/10 09:03:40;;;;;;;;;51.00;41.75;;;;;;;;5080071;27;45318;-73
2021/10/10 09:06:05;;;;;;;;;47.25;39.50;;;;;;;;5077145;27;45312;-74
2021/10/10 09:08:30;;;;;;;;;39.75;36.25;;;;;;;;5079324;27;45284;-73
2021/10/10 09:10:56;;;;;;;;;42.75;37.00;;;;;;;;5080332;27;45519;-73
2021/10/10 09:13:28;;;;;;;;;52.25;39.00;;;;;;;;5079712;27;45364;-73
2021/10/10 09:15:54;;;;;;;;;52.50;38.50;;;;;;;;5076645;27;45448;-73
2021/10/10 09:18:19;;;;;;;;;44.00;36.50;;;;;;;;5078261;27;45580;-70
2021/10/10 09:20:45;;;;;;;;;49.75;37.75;;;;;;;;5074851;27;47097;-72
2021/10/10 09:23:16;;;;;;;;;48.00;40.50;;;;;;;;5081116;27;45481;-70
2021/10/10 09:25:55;;;;;;;;;44.25;37.00;;;;;;;;5080665;27;45425;-70
2021/10/10 09:28:21;;;;;;;;;47.00;39.25;;;;;;;;5079484;27;45371;-71
2021/10/10 09:30:47;;;;;;;;;53.00;41.00;;;;;;;;5079674;27;46078;-71
2021/10/10 09:33:13;;;;;;;;;41.00;35.50;;;;;;;;5077086;27;45535;-71
2021/10/10 09:35:40;;;;;;;;;44.25;36.00;;;;;;;;5076175;27;45393;-72
2021/10/10 09:38:12;;;;;;;;;45.00;36.00;;;;;;;;5081082;27;45603;-70
2021/10/10 09:40:44;;;;;;;;;39.50;35.50;;;;;;;;5078789;27;46294;-72
2021/10/10 09:43:10;;;;;;;;;33.00;30.75;;;;;;;;5079823;27;45528;-72
2021/10/10 09:45:54;;;;;;;;;35.25;31.25;;;;;;;;5080952;27;45473;-72
2021/10/10 09:48:30;;;;;;;;;35.00;29.75;;;;;;;;5079449;27;45411;-71
2021/10/10 09:50:55;;;;;;;;;32.50;29.25;;;;;;;;5064666;27;45356;-72
2021/10/10 09:53:29;;;;;;;;;40.75;34.00;;;;;;;;5079418;27;45254;-72
2021/10/10 09:55:56;;;;;;;;;36.50;32.50;;;;;;;;5079436;27;45670;-71
2021/10/10 09:58:36;;;;;;;;;35.25;30.50;;;;;;;;5078727;27;45249;-70
2021/10/10 10:01:29;;;;;;;;;30.25;30.00;;;;;;;;5078520;27;46595;-73
2021/10/10 10:04:07;;;;;;;;;45.00;36.00;;;;;;;;5073712;27;45505;-73
2021/10/10 10:06:34;;;;;;;;;36.25;31.50;;;;;;;;5076886;27;45471;-73
2021/10/10 10:09:06;;;;;;;;;35.75;32.25;;;;;;;;5072782;27;45568;-73
2021/10/10 10:11:33;;;;;;;;;39.25;33.00;;;;;;;;5076412;27;46243;-73
2021/10/10 10:14:00;;;;;;;;;34.75;32.00;;;;;;;;5077467;27;45354;-72
2021/10/10 10:16:25;;;;;;;;;36.00;34.25;;;;;;;;5074340;27;45477;-74
2021/10/10 10:18:51;;;;;;;;;32.75;29.50;;;;;;;;5077016;27;45563;-74
2021/10/10 10:21:16;;;;;;;;;35.00;32.25;;;;;;;;5074177;27;46236;-74
2021/10/10 10:23:42;;;;;;;;;36.25;34.50;;;;;;;;5074026;27;45344;-73
2021/10/10 10:26:08;;;;;;;;;39.25;32.50;;;;;;;;5077554;27;45493;-72
2021/10/10 10:28:34;;;;;;;;;35.75;31.75;;;;;;;;5077051;27;45455;-76
2021/10/10 10:31:00;;;;;;;;;40.25;33.25;;;;;;;;5076715;27;46344;-75
2021/10/10 10:33:31;;;;;;;;;31.50;28.50;;;;;;;;5076850;27;45398;-75
2021/10/10 10:35:56;;;;;;;;;35.25;30.75;;;;;;;;5071173;27;45708;-76
2021/10/10 10:38:41;;;;;;;;;31.25;30.25;;;;;;;;5060476;28;45307;-76
2021/10/10 10:41:06;;;;;;;;;28.50;25.00;;;;;;;;5077003;27;45397;-75
2021/10/10 10:43:37;;;;;;;;;29.25;26.25;;;;;;;;5058472;28;45590;-75
2021/10/10 10:46:05;;;;;;;;;30.25;28.00;;;;;;;;5076110;27;45386;-76
2021/10/10 10:48:35;;;;;;;;;33.25;28.75;;;;;;;;5030624;27;1229866;-75
2021/10/10 10:51:16;;;;;;;;;29.00;26.75;;;;;;;;5072773;27;46051;-74
2021/10/10 10:53:43;;;;;;;;;27.00;25.00;;;;;;;;5074865;27;45296;-77
2021/10/10 10:56:23;;;;;;;;;40.00;34.00;;;;;;;;5078280;27;45425;-70
2021/10/10 10:58:48;;;;;;;;;85.67;79.00;;;;;;;;5077880;27;45427;-71
2021/10/10 11:01:13;;;;;;;;;85.33;82.00;;;;;;;;5077727;27;45609;-74
2021/10/10 11:03:38;;;;;;;;;72.50;59.00;;;;;;;;5077460;27;45280;-72
2021/10/10 11:06:06;;;;;;;;;61.25;49.25;;;;;;;;5073480;27;45488;-70
2021/10/10 11:08:34;;;;;;;;;26.75;24.25;;;;;;;;5076426;27;45391;-71
2021/10/10 11:11:05;;;;;;;;;28.25;26.50;;;;;;;;5078809;27;46434;-71
2021/10/10 11:13:33;;;;;;;;;30.75;29.00;;;;;;;;5077042;27;45347;-73
2021/10/10 11:16:04;;;;;;;;;26.75;25.75;;;;;;;;5076789;27;45425;-72
2021/10/10 11:18:29;;;;;;;;;28.00;26.75;;;;;;;;5076929;27;45271;-72
2021/10/10 11:20:55;;;;;;;;;30.75;29.00;;;;;;;;5072667;27;46908;-70
2021/10/10 11:23:22;;;;;;;;;30.75;26.75;;;;;;;;5079349;27;45369;-70
2021/10/10 11:25:49;;;;;;;;;28.25;25.75;;;;;;;;5084042;27;45524;-70
2021/10/10 11:28:15;;;;;;;;;23.25;22.25;;;;;;;;5081049;27;45604;-72
2021/10/10 11:30:40;;;;;;;;;24.75;24.75;;;;;;;;5075625;27;45338;-72
2021/10/10 11:33:05;;;;;;;;;27.75;26.00;;;;;;;;5073339;27;45525;-73
2021/10/10 11:35:30;;;;;;;;;20.75;17.25;;;;;;;;5078460;27;45473;-69
2021/10/10 11:37:59;;;;;;;;;24.75;23.00;;;;;;;;5077405;27;45500;-71
2021/10/10 11:40:25;;;;;;;;;24.25;21.75;;;;;;;;5077490;27;46213;-71
2021/10/10 11:42:53;;;;;;;;;28.50;25.50;;;;;;;;5076908;27;45466;-71
2021/10/10 11:45:22;;;;;;;;;27.50;25.50;;;;;;;;5076097;27;45613;-72
2021/10/10 11:47:51;;;;;;;;;24.75;21.75;;;;;;;;5072791;27;45358;-71
2021/10/10 11:50:16;;;;;;;;;22.25;21.50;;;;;;;;5078887;27;46075;-72
2021/10/10 11:52:45;;;;;;;;;28.75;28.00;;;;;;;;5076756;27;45516;-71
2021/10/10 11:55:23;;;;;;;;;19.75;19.75;;;;;;;;5076716;27;45295;-72
2021/10/10 11:57:55;;;;;;;;;27.25;25.25;;;;;;;;5076402;27;45331;-70
2021/10/10 12:00:25;;;;;;;;;25.00;24.50;;;;;;;;5075436;27;46075;-70
2021/10/10 12:02:50;;;;;;;;;26.75;25.00;;;;;;;;5071936;27;45558;-70
2021/10/10 12:05:16;;;;;;;;;23.25;22.25;;;;;;;;5059984;28;45316;-71
2021/10/10 12:07:43;;;;;;;;;28.50;23.50;;;;;;;;5075222;27;45351;-73
2021/10/10 12:10:19;;;;;;;;;26.25;25.50;;;;;;;;5074911;27;47341;-72
2021/10/10 12:12:47;;;;;;;;;26.50;21.75;;;;;;;;5076795;27;45466;-72
2021/10/10 12:15:16;;;;;;;;;18.50;17.75;;;;;;;;5074701;27;45375;-73
2021/10/10 12:17:43;;;;;;;;;22.50;22.25;;;;;;;;5073243;27;45567;-72
2021/10/10 12:20:08;;;;;;;;;31.25;31.00;;;;;;;;5078257;27;45620;-72
2021/10/10 12:22:33;;;;;;;;;22.50;22.50;;;;;;;;5076512;27;45350;-73
2021/10/10 12:24:59;;;;;;;;;25.75;23.25;;;;;;;;5076781;27;45562;-72
2021/10/10 12:27:28;;;;;;;;;23.75;22.00;;;;;;;;5076132;27;45546;-72
2021/10/10 12:29:54;;;;;;;;;26.50;22.00;;;;;;;;5055234;27;47157;-73
2021/10/10 12:32:21;;;;;;;;;22.25;21.50;;;;;;;;5059328;28;45490;-73
2021/10/10 12:34:46;;;;;;;;;23.00;22.00;;;;;;;;5076243;27;45365;-73
2021/10/10 12:37:17;;;;;;;;;20.50;18.50;;;;;;;;5075984;27;45398;-72
2021/10/10 12:39:44;;;;;;;;;25.50;23.00;;;;;;;;5076472;27;46014;-71
2021/10/10 12:42:09;;;;;;;;;26.75;26.75;;;;;;;;5074708;27;45378;-71
2021/10/10 12:44:35;;;;;;;;;27.50;24.75;;;;;;;;5074669;27;45330;-74
2021/10/10 12:47:00;;;;;;;;;25.75;24.25;;;;;;;;5075699;27;45291;-72
2021/10/10 12:49:31;;;;;;;;;34.25;30.25;;;;;;;;5073787;27;45864;-74
2021/10/10 12:51:58;;;;;;;;;27.50;24.00;;;;;;;;5076167;27;45556;-72
2021/10/10 12:54:24;;;;;;;;;27.25;23.75;;;;;;;;5075859;27;45384;-73
2021/10/10 12:57:02;;;;;;;;;31.25;26.50;;;;;;;;5072072;27;45644;-73
2021/10/10 12:59:27;;;;;;;;;31.25;29.00;;;;;;;;5085675;27;46178;-74
2021/10/10 13:01:52;;;;;;;;;27.50;24.00;;;;;;;;5076289;27;45243;-73
2021/10/10 13:04:18;;;;;;;;;31.25;27.50;;;;;;;;5076264;27;45667;-73
2021/10/10 13:06:45;;;;;;;;;28.75;26.25;;;;;;;;5076037;27;45632;-73
2021/10/10 13:09:10;;;;;;;;;27.25;26.00;;;;;;;;5073356;27;46090;-73
2021/10/10 13:11:36;;;;;;;;;23.75;23.25;;;;;;;;5073679;27;45494;-73
2021/10/10 13:14:01;;;;;;;;;30.25;27.00;;;;;;;;5077490;27;45611;-77
2021/10/10 13:16:26;;;;;;;;;25.50;23.25;;;;;;;;5075987;27;45518;-73
2021/10/10 13:18:51;;;;;;;;;30.00;28.25;;;;;;;;5075449;27;47403;-72
2021/10/10 13:21:16;;;;;;;;;22.75;22.50;;;;;;;;5074412;27;45548;-73
2021/10/10 13:23:42;;;;;;;;;25.50;24.50;;;;;;;;5073267;27;45501;-74
2021/10/10 13:26:07;;;;;;;;;29.00;25.00;;;;;;;;5076079;27;45414;-73
2021/10/10 13:28:33;;;;;;;;;26.00;22.50;;;;;;;;5074491;27;45427;-73
2021/10/10 13:31:01;;;;;;;;;24.00;22.00;;;;;;;;5075875;27;45360;-74
2021/10/10 13:33:27;;;;;;;;;22.25;22.25;;;;;;;;5075551;27;45242;-73
2021/10/10 13:35:52;;;;;;;;;23.25;23.25;;;;;;;;5071578;27;45472;-73
2021/10/10 13:38:17;;;;;;;;;24.50;23.50;;;;;;;;5077573;27;45410;-72
2021/10/10 13:40:42;;;;;;;;;29.25;24.00;;;;;;;;5075121;27;45419;-72
2021/10/10 13:43:08;;;;;;;;;25.50;24.75;;;;;;;;5078887;27;45336;-72
2021/10/10 13:45:34;;;;;;;;;26.75;26.00;;;;;;;;5079268;27;45262;-72
2021/10/10 13:47:59;;;;;;;;;26.75;25.00;;;;;;;;5074586;27;47209;-72
2021/10/10 13:50:24;;;;;;;;;27.50;27.25;;;;;;;;5079612;27;45248;-73
2021/10/10 13:52:49;;;;;;;;;19.75;19.50;;;;;;;;5079576;27;45394;-72
2021/10/10 13:55:15;;;;;;;;;24.50;21.75;;;;;;;;5078654;27;45521;-73
2021/10/10 13:57:41;;;;;;;;;17.00;15.75;;;;;;;;5078797;27;46343;-71
2021/10/10 14:00:07;;;;;;;;;23.50;23.50;;;;;;;;5075867;27;45336;-71
2021/10/10 14:02:32;;;;;;;;;24.50;24.50;;;;;;;;5077912;27;45324;-72
2021/10/10 14:04:57;;;;;;;;;22.25;22.25;;;;;;;;5078033;27;45426;-73
2021/10/10 14:07:23;;;;;;;;;23.00;22.75;;;;;;;;5076259;27;46099;-70
2021/10/10 14:09:48;;;;;;;;;25.75;23.75;;;;;;;;5077883;27;45397;-73
2021/10/10 14:12:16;;;;;;;;;27.00;25.25;;;;;;;;5058571;27;45437;-72
2021/10/10 14:14:41;;;;;;;;;20.75;20.50;;;;;;;;5075635;27;45275;-73
2021/10/10 14:17:06;;;;;;;;;23.50;23.50;;;;;;;;5077979;27;45419;-72
2021/10/10 14:19:31;;;;;;;;;24.50;24.50;;;;;;;;5078386;27;45387;-71
2021/10/10 14:21:56;;;;;;;;;24.25;24.00;;;;;;;;5078312;27;45538;-74